Time;durP1;ratioP1;P1;durP2;ratioP2;P2;SDS_P1;SDS_P2;PMS_P1;PMS_P2;Temp;Humidity;BMP_temperature;BMP_pressure;BME280_temperature;BME280_humidity;BME280_pressure;Samples;Min_cycle;Max_cycle;Signal;HPM_P1;HPM_P2
2022/05/30 00:00:31;;;;;;;22.40;20.33;;;;;;;11.28;100.00;98374.78;2066867;28;20267;-72
2022/05/30 00:01:31;;;;;;;23.25;21.17;;;;;;;11.27;100.00;98379.34;2067285;28;20193;-72
2022/05/30 00:02:33;;;;;;;22.90;20.73;;;;;;;11.24;100.00;98374.66;2066538;28;20220;-72
2022/05/30 00:03:34;;;;;;;23.15;20.92;;;;;;;11.18;100.00;98375.91;2066576;28;20197;-72
2022/05/30 00:04:36;;;;;;;24.40;21.10;;;;;;;11.17;100.00;98378.88;2067265;28;20228;-72
2022/05/30 00:05:46;;;;;;;22.60;20.35;;;;;;;11.10;100.00;98374.03;2066503;28;20201;-72
2022/05/30 00:06:50;;;;;;;23.48;21.10;;;;;;;11.06;100.00;98369.66;2066360;28;20239;-72
2022/05/30 00:07:52;;;;;;;22.33;20.20;;;;;;;10.99;100.00;98373.56;2067249;28;20200;-71
2022/05/30 00:08:54;;;;;;;24.45;20.75;;;;;;;10.97;100.00;98375.78;2067111;28;20189;-72
2022/05/30 00:09:55;;;;;;;22.85;20.70;;;;;;;11.00;100.00;98374.34;2067129;28;20660;-71
2022/05/30 00:10:56;;;;;;;23.97;21.47;;;;;;;11.03;100.00;98377.19;2066452;28;20654;-72
2022/05/30 00:11:57;;;;;;;22.95;20.60;;;;;;;11.05;100.00;98376.88;2066533;28;20204;-72
2022/05/30 00:12:59;;;;;;;22.97;21.07;;;;;;;11.08;100.00;98378.91;2067142;28;20687;-72
2022/05/30 00:14:00;;;;;;;23.23;21.13;;;;;;;11.07;100.00;98372.00;2066358;28;20217;-72
2022/05/30 00:15:02;;;;;;;24.03;21.43;;;;;;;11.10;100.00;98367.91;2066513;28;20189;-72
2022/05/30 00:16:04;;;;;;;24.45;21.92;;;;;;;11.08;100.00;98365.56;2067146;28;20192;-72
2022/05/30 00:17:07;;;;;;;23.70;21.30;;;;;;;11.08;100.00;98370.88;2067078;28;20244;-72
2022/05/30 00:18:09;;;;;;;23.52;21.42;;;;;;;11.13;100.00;98361.94;2066726;28;20205;-72
2022/05/30 00:19:13;;;;;;;24.67;22.15;;;;;;;11.04;100.00;98376.09;2066557;28;20248;-72
2022/05/30 00:20:16;;;;;;;25.33;21.30;;;;;;;11.04;100.00;98391.31;2066689;28;20695;-72
2022/05/30 00:21:19;;;;;;;23.63;21.42;;;;;;;10.95;100.00;98380.66;2058371;28;20593;-72
2022/05/30 00:22:20;;;;;;;24.73;21.27;;;;;;;10.95;100.00;98393.22;2058450;28;20676;-72
2022/05/30 00:23:23;;;;;;;23.53;21.13;;;;;;;11.01;100.00;98391.94;2058354;28;20672;-72
2022/05/30 00:24:23;;;;;;;22.67;20.55;;;;;;;10.99;100.00;98394.13;2058369;28;20237;-72
2022/05/30 00:25:25;;;;;;;24.63;22.13;;;;;;;11.01;100.00;98395.38;2066413;28;20280;-72
2022/05/30 00:26:29;;;;;;;23.75;21.23;;;;;;;11.01;100.00;98391.94;2066317;28;20201;-72
2022/05/30 00:27:32;;;;;;;24.95;22.42;;;;;;;10.96;100.00;98400.13;2066431;28;20703;-72
2022/05/30 00:28:33;;;;;;;25.45;22.92;;;;;;;10.94;100.00;98391.63;2067224;28;20189;-72
2022/05/30 00:29:34;;;;;;;25.10;22.57;;;;;;;10.94;100.00;98388.94;2066236;28;20201;-72
2022/05/30 00:30:36;;;;;;;24.30;21.88;;;;;;;10.92;100.00;98389.25;2058254;28;20205;-71
2022/05/30 00:31:37;;;;;;;24.05;21.83;;;;;;;10.92;100.00;98389.25;2066080;28;20239;-72
2022/05/30 00:32:39;;;;;;;24.25;21.85;;;;;;;10.87;100.00;98380.66;2066340;28;20629;-72
2022/05/30 00:33:46;;;;;;;25.67;23.23;;;;;;;10.86;100.00;98384.38;2067075;28;20256;-72
2022/05/30 00:34:50;;;;;;;25.83;23.38;;;;;;;10.82;100.00;98384.25;2066322;28;20200;-72
2022/05/30 00:35:52;;;;;;;24.80;22.50;;;;;;;10.80;100.00;98383.78;2058560;28;20249;-72
2022/05/30 00:36:52;;;;;;;25.38;23.02;;;;;;;10.81;100.00;98388.00;2066264;28;20221;-72
2022/05/30 00:37:54;;;;;;;25.23;22.87;;;;;;;10.80;100.00;98380.31;2066917;28;20189;-72
2022/05/30 00:38:56;;;;;;;24.90;22.52;;;;;;;10.81;100.00;98382.69;2067021;28;20678;-72
2022/05/30 00:40:01;;;;;;;26.45;23.75;;;;;;;10.83;100.00;98380.47;2067001;28;20271;-72
2022/05/30 00:41:02;;;;;;;26.05;23.48;;;;;;;10.84;100.00;98381.25;2067031;28;20553;-72
2022/05/30 00:42:10;;;;;;;26.88;24.27;;;;;;;10.80;100.00;98381.09;2066881;28;20185;-71
2022/05/30 00:43:23;;;;;;;26.33;23.92;;;;;;;10.80;100.00;98380.31;2066248;28;20199;-72
2022/05/30 00:44:25;;;;;;;26.55;23.95;;;;;;;10.75;100.00;98379.38;2066537;28;20691;-72
2022/05/30 00:45:25;;;;;;;26.25;23.80;;;;;;;10.71;100.00;98375.78;2066820;28;20710;-72
2022/05/30 00:46:29;;;;;;;25.57;23.07;;;;;;;10.75;100.00;98374.03;2067064;28;20576;-72
2022/05/30 00:47:32;;;;;;;26.15;23.60;;;;;;;10.75;100.00;98376.69;2066829;28;20216;-72
2022/05/30 00:48:36;;;;;;;26.25;23.95;;;;;;;10.76;100.00;98375.59;2066893;28;20185;-72
2022/05/30 00:49:39;;;;;;;25.92;23.52;;;;;;;10.78;100.00;98374.53;2065855;28;20201;-71
2022/05/30 00:50:41;;;;;;;26.35;23.70;;;;;;;10.81;100.00;98376.56;2065720;28;20221;-72
2022/05/30 00:51:45;;;;;;;27.88;24.95;;;;;;;10.83;100.00;98371.69;2066482;28;20225;-72
2022/05/30 00:52:46;;;;;;;27.33;24.35;;;;;;;10.81;100.00;98365.88;2066076;28;20201;-72
2022/05/30 00:53:53;;;;;;;26.13;23.35;;;;;;;10.84;100.00;98370.59;2066002;28;20225;-72
2022/05/30 00:54:59;;;;;;;27.42;24.58;;;;;;;10.79;100.00;98368.09;2066098;28;20201;-72
2022/05/30 00:56:03;;;;;;;27.25;24.55;;;;;;;10.77;100.00;98365.72;2058645;28;20185;-72
2022/05/30 00:57:20;;;;;;;27.60;24.45;;;;;;;10.78;100.00;98372.66;2066216;28;20566;-72
2022/05/30 00:58:23;;;;;;;27.25;24.67;;;;;;;10.66;100.00;98370.56;2067001;28;20232;-72
2022/05/30 00:59:23;;;;;;;30.08;24.77;;;;;;;10.61;100.00;98367.28;2066069;28;20255;-72
2022/05/30 01:00:28;;;;;;;26.50;24.03;;;;;;;10.62;100.00;98369.66;2066077;28;20205;-72
2022/05/30 01:01:36;;;;;;;27.50;24.83;;;;;;;10.59;100.00;98367.59;2066037;28;20192;-72
2022/05/30 01:02:40;;;;;;;28.13;25.25;;;;;;;10.59;100.00;98366.81;2066186;28;20196;-71
2022/05/30 01:06:32;;;;;;;29.98;24.95;;;;;;;10.59;100.00;98366.81;2065555;28;20239;-72
2022/05/30 01:07:35;;;;;;;27.13;24.42;;;;;;;10.61;100.00;98372.63;2058726;28;20190;-72
2022/05/30 01:08:38;;;;;;;27.63;24.90;;;;;;;10.58;100.00;98359.91;2058124;28;20198;-71
2022/05/30 01:09:44;;;;;;;28.58;25.52;;;;;;;10.58;100.00;98368.69;2065993;28;20201;-72
2022/05/30 01:10:48;;;;;;;28.67;25.40;;;;;;;10.54;100.00;98367.75;2066260;28;20260;-72
2022/05/30 01:11:50;;;;;;;30.45;25.15;;;;;;;10.54;100.00;98365.09;2065967;28;20612;-72
2022/05/30 01:12:55;;;;;;;27.88;25.02;;;;;;;10.52;100.00;98367.28;2058318;28;20284;-72
2022/05/30 01:13:56;;;;;;;26.95;24.42;;;;;;;10.58;100.00;98358.00;2065872;28;20197;-72
2022/05/30 01:14:58;;;;;;;27.65;24.92;;;;;;;10.56;100.00;98365.56;2065944;28;20642;-72
2022/05/30 01:16:01;;;;;;;27.95;25.02;;;;;;;10.55;100.00;98358.66;2065890;28;20211;-72
2022/05/30 01:17:06;;;;;;;29.45;25.00;;;;;;;10.55;100.00;98355.19;2066247;28;20200;-72
2022/05/30 01:18:12;;;;;;;27.75;25.00;;;;;;;10.54;100.00;98356.31;2065932;28;20650;-72
2022/05/30 01:19:23;;;;;;;27.80;25.20;;;;;;;10.53;100.00;98358.19;2058746;28;20201;-72
2022/05/30 01:20:31;;;;;;;28.25;25.58;;;;;;;10.48;100.00;98353.00;2059121;28;20196;-72
2022/05/30 01:22:03;;;;;;;28.38;25.38;;;;;;;10.53;100.00;98360.84;2065412;28;20259;-71
2022/05/30 01:23:14;;;;;;;27.27;24.65;;;;;;;10.50;100.00;98358.78;2061905;28;20347;-72
2022/05/30 01:24:24;;;;;;;33.47;25.83;;;;;;;10.55;100.00;98363.97;2066215;28;20169;-72
2022/05/30 01:26:09;;;;;;;31.40;25.65;;;;;;;10.56;100.00;98360.22;2065984;28;20200;-72
2022/05/30 01:27:34;;;;;;;29.70;26.35;;;;;;;10.56;100.00;98357.56;2062593;28;20193;-72
2022/05/30 01:28:42;;;;;;;31.98;27.45;;;;;;;10.58;100.00;98358.00;2059629;28;20637;-71
2022/05/30 01:29:49;;;;;;;29.23;25.95;;;;;;;10.55;100.00;98358.66;2058704;28;20217;-72
2022/05/30 01:30:52;;;;;;;30.60;27.27;;;;;;;10.57;100.00;98361.78;2058484;28;20216;-72
2022/05/30 01:31:54;;;;;;;29.88;26.65;;;;;;;10.57;100.00;98353.00;2058198;28;20196;-72
2022/05/30 01:32:57;;;;;;;30.67;27.13;;;;;;;10.56;100.00;98354.09;2065896;28;20622;-72
2022/05/30 01:33:58;;;;;;;29.98;26.73;;;;;;;10.53;100.00;98347.50;2065900;28;20249;-72
2022/05/30 01:34:59;;;;;;;29.58;26.58;;;;;;;10.53;100.00;98349.41;2065813;28;20679;-71
2022/05/30 01:36:09;;;;;;;29.98;26.80;;;;;;;10.55;100.00;98355.19;2058104;28;20676;-72
2022/05/30 01:37:10;;;;;;;29.65;26.20;;;;;;;10.57;100.00;98347.66;2065815;28;20199;-71
2022/05/30 01:38:12;;;;;;;30.73;27.30;;;;;;;10.55;100.00;98355.19;2065840;28;20272;-72
2022/05/30 01:39:18;;;;;;;29.70;26.48;;;;;;;10.52;100.00;98337.94;2065731;28;20200;-71
2022/05/30 01:40:23;;;;;;;30.70;26.55;;;;;;;10.54;100.00;98345.63;2065986;28;20661;-71
2022/05/30 01:41:25;;;;;;;28.70;25.77;;;;;;;10.58;100.00;98346.56;2057906;28;20198;-72
2022/05/30 01:42:28;;;;;;;29.30;26.33;;;;;;;10.54;100.00;98341.09;2057859;28;20202;-71
2022/05/30 01:43:34;;;;;;;30.45;27.20;;;;;;;10.53;100.00;98341.41;2057940;28;20731;-72
2022/05/30 01:44:48;;;;;;;29.55;26.08;;;;;;;10.50;100.00;98336.66;2065878;28;20197;-72
2022/05/30 01:45:49;;;;;;;30.52;27.20;;;;;;;10.46;100.00;98336.53;2058409;28;20190;-72
2022/05/30 01:46:51;;;;;;;30.97;27.40;;;;;;;10.45;100.00;98340.28;2065679;28;20196;-72
2022/05/30 01:47:52;;;;;;;29.40;26.50;;;;;;;10.50;100.00;98337.44;2057714;28;20197;-72
2022/05/30 01:48:54;;;;;;;29.52;26.50;;;;;;;10.55;100.00;98331.19;2057804;28;20202;-72
2022/05/30 01:49:57;;;;;;;29.15;26.15;;;;;;;10.47;100.00;98330.88;2065681;28;20203;-71
2022/05/30 01:51:06;;;;;;;31.92;27.05;;;;;;;10.45;100.00;98333.06;2058432;28;20190;-72
2022/05/30 01:52:09;;;;;;;29.58;26.42;;;;;;;10.38;100.00;98335.41;2057786;28;20680;-72
2022/05/30 01:53:11;;;;;;;29.45;26.33;;;;;;;10.35;100.00;98332.59;2057891;28;20194;-71
2022/05/30 01:54:36;;;;;;;30.73;27.25;;;;;;;10.31;100.00;98335.09;2065442;28;20221;-72
2022/05/30 01:55:54;;;;;;;32.08;26.52;;;;;;;10.31;100.00;98337.75;2073853;28;20226;-71
2022/05/30 01:56:57;;;;;;;29.43;26.43;;;;;;;10.28;100.00;98334.94;2065669;28;20193;-72
2022/05/30 01:58:03;;;;;;;29.55;26.50;;;;;;;10.27;100.00;98336.81;2065724;28;20197;-71
2022/05/30 01:59:11;;;;;;;29.70;26.52;;;;;;;10.32;100.00;98338.53;2065767;28;20173;-72
2022/05/30 02:00:14;;;;;;;30.00;26.73;;;;;;;10.33;100.00;98340.09;2066353;28;20304;-72
2022/05/30 02:01:20;;;;;;;29.30;26.20;;;;;;;10.35;100.00;98329.94;2066260;28;20181;-72
2022/05/30 02:02:21;;;;;;;30.05;26.88;;;;;;;10.43;100.00;98329.16;2065539;28;20254;-71
2022/05/30 02:03:25;;;;;;;29.57;26.33;;;;;;;10.44;100.00;98336.06;2057506;28;20257;-72
2022/05/30 02:04:28;;;;;;;29.92;26.70;;;;;;;10.39;100.00;98334.31;2057824;28;20585;-72
2022/05/30 02:05:33;;;;;;;29.23;26.08;;;;;;;10.40;100.00;98343.09;2065645;28;20212;-71
2022/05/30 02:06:35;;;;;;;29.73;26.55;;;;;;;10.41;100.00;98348.13;2065330;28;20300;-72
2022/05/30 02:07:38;;;;;;;35.42;26.63;;;;;;;10.37;100.00;98338.41;2065502;28;20211;-72
2022/05/30 02:08:39;;;;;;;28.85;25.83;;;;;;;10.33;100.00;98334.78;2065548;28;20717;-72
2022/05/30 02:09:41;;;;;;;30.47;27.13;;;;;;;10.27;100.00;98344.03;2057470;28;20608;-72
2022/05/30 02:10:42;;;;;;;30.05;26.50;;;;;;;10.25;100.00;98339.00;2065461;28;20192;-72
2022/05/30 02:11:47;;;;;;;30.50;27.33;;;;;;;10.26;100.00;98343.25;2065486;28;20780;-72
2022/05/30 02:13:05;;;;;;;31.08;27.85;;;;;;;10.23;100.00;98341.19;2059830;28;20686;-72
2022/05/30 02:14:40;;;;;;;34.35;28.52;;;;;;;10.22;100.00;98349.47;2070962;28;20224;-72
2022/05/30 02:17:06;;;;;;;33.05;27.73;;;;;;;10.26;100.00;98345.13;2065771;28;20666;-72
2022/05/30 02:18:09;;;;;;;32.13;28.33;;;;;;;10.28;100.00;98350.94;2065821;28;20618;-72
2022/05/30 02:19:11;;;;;;;30.13;27.08;;;;;;;10.28;100.00;98356.25;2065529;28;20786;-71
2022/05/30 02:20:17;;;;;;;30.35;27.25;;;;;;;10.24;100.00;98353.41;2065435;28;20280;-72
2022/05/30 02:21:19;;;;;;;35.63;29.50;;;;;;;10.36;100.00;98350.16;2057921;28;20559;-72
2022/05/30 02:22:22;;;;;;;30.98;27.75;;;;;;;10.40;100.00;98361.75;2065376;28;20197;-72
2022/05/30 02:23:23;;;;;;;34.65;28.50;;;;;;;10.38;100.00;98353.28;2057634;28;20198;-72
2022/05/30 02:24:28;;;;;;;32.25;28.25;;;;;;;10.37;100.00;98352.50;2057589;28;20190;-72
2022/05/30 02:25:30;;;;;;;31.17;27.73;;;;;;;10.36;100.00;98356.28;2065501;28;20196;-72
2022/05/30 02:26:35;;;;;;;31.13;27.90;;;;;;;10.36;100.00;98358.16;2066104;28;20280;-71
2022/05/30 02:27:36;;;;;;;30.92;27.85;;;;;;;10.36;100.00;98355.50;2065406;28;20679;-72
2022/05/30 02:28:38;;;;;;;32.00;27.43;;;;;;;10.39;100.00;98354.88;2057480;28;20675;-72
2022/05/30 02:29:39;;;;;;;31.40;27.63;;;;;;;10.44;100.00;98357.41;2057466;28;20209;-72
2022/05/30 02:30:45;;;;;;;31.40;28.20;;;;;;;10.47;100.00;98354.09;2057830;28;20224;-72
2022/05/30 02:31:47;;;;;;;31.27;28.10;;;;;;;10.48;100.00;98363.66;2057424;28;20248;-72
2022/05/30 02:36:38;;;;;;;30.10;26.77;;;;;;;10.46;100.00;98355.19;2057359;28;20194;-72
2022/05/30 02:37:04;;;;;;;31.80;28.42;;;;;;;10.36;100.00;98352.81;2041169;28;20214;-72
2022/05/30 02:38:07;;;;;;;31.70;28.50;;;;;;;10.37;100.00;98349.06;2033294;29;20192;-72
2022/05/30 02:39:33;;;;;;;32.10;28.80;;;;;;;10.40;100.00;98346.53;2044174;29;20206;-71
2022/05/30 02:40:54;;;;;;;34.95;28.80;;;;;;;10.45;100.00;98359.75;2049134;29;20182;-72
2022/05/30 02:42:16;;;;;;;31.48;28.15;;;;;;;10.45;100.00;98349.06;2048919;28;20273;-72
2022/05/30 02:43:17;;;;;;;36.92;28.05;;;;;;;10.46;100.00;98349.84;2064015;28;20197;-72
2022/05/30 02:44:21;;;;;;;31.38;28.10;;;;;;;10.42;100.00;98360.38;2057307;28;20747;-72
2022/05/30 02:45:23;;;;;;;32.70;28.98;;;;;;;10.40;100.00;98351.88;2065354;28;20670;-71
2022/05/30 02:46:30;;;;;;;36.55;29.67;;;;;;;10.43;100.00;98361.16;2065275;28;20192;-72
2022/05/30 02:47:34;;;;;;;39.40;29.27;;;;;;;10.52;100.00;98350.50;2065229;28;20679;-71
2022/05/30 02:48:42;;;;;;;37.33;29.70;;;;;;;10.48;100.00;98355.66;2065389;28;20271;-72
2022/05/30 02:49:44;;;;;;;33.00;29.53;;;;;;;10.47;100.00;98351.44;2065279;28;20252;-72
2022/05/30 02:50:45;;;;;;;35.70;29.17;;;;;;;10.47;100.00;98362.88;2065239;28;20331;-72
2022/05/30 02:51:48;;;;;;;32.47;28.55;;;;;;;10.51;100.00;98348.91;2057099;28;20222;-72
2022/05/30 02:52:50;;;;;;;36.40;29.65;;;;;;;10.51;100.00;98354.25;2065347;28;20687;-71
2022/05/30 02:54:00;;;;;;;35.90;29.60;;;;;;;10.50;100.00;98348.13;2065214;28;20197;-71
2022/05/30 02:55:12;;;;;;;36.67;28.13;;;;;;;10.48;100.00;98355.66;2065387;28;20586;-71
2022/05/30 02:56:28;;;;;;;34.20;29.15;;;;;;;10.44;100.00;98358.19;2065300;28;20197;-72
2022/05/30 02:57:29;;;;;;;32.38;29.02;;;;;;;10.46;100.00;98360.53;2057226;28;20268;-72
2022/05/30 02:58:31;;;;;;;33.57;29.43;;;;;;;10.46;100.00;98363.19;2057470;28;20202;-72
2022/05/30 02:59:33;;;;;;;32.95;29.45;;;;;;;10.42;100.00;98359.56;2065298;28;20189;-72
2022/05/30 03:00:39;;;;;;;31.83;28.52;;;;;;;10.44;100.00;98358.19;2065491;28;20839;-71
2022/05/30 03:01:42;;;;;;;35.67;29.60;;;;;;;10.48;100.00;98374.31;2065265;28;20292;-72
2022/05/30 03:02:43;;;;;;;38.13;29.40;;;;;;;10.47;100.00;98362.09;2057323;28;20198;-71
2022/05/30 03:03:46;;;;;;;32.97;28.63;;;;;;;10.50;100.00;98361.47;2057153;28;20201;-72
2022/05/30 03:04:46;;;;;;;33.35;28.48;;;;;;;10.49;100.00;98357.22;2065188;28;20192;-72
2022/05/30 03:05:48;;;;;;;38.93;28.70;;;;;;;10.51;100.00;98365.69;2057125;28;20668;-72
2022/05/30 03:06:51;;;;;;;34.17;28.70;;;;;;;10.48;100.00;98355.66;2064753;28;20224;-72
2022/05/30 03:07:53;;;;;;;41.47;27.98;;;;;;;10.50;100.00;98366.78;2065207;28;20750;-71
2022/05/30 03:09:14;;;;;;;34.25;29.05;;;;;;;10.49;100.00;98370.56;2065527;28;20177;-72
2022/05/30 03:10:35;;;;;;;31.05;27.25;;;;;;;10.44;100.00;98357.41;2065874;28;20173;-71
2022/05/30 03:11:36;;;;;;;31.67;27.52;;;;;;;10.56;100.00;98368.22;2065157;28;20203;-72
2022/05/30 03:12:38;;;;;;;37.37;28.40;;;;;;;10.58;100.00;98363.34;2065180;28;20201;-71
2022/05/30 03:13:40;;;;;;;35.67;28.25;;;;;;;10.56;100.00;98365.56;2066336;28;20584;-72
2022/05/30 03:14:43;;;;;;;29.70;26.35;;;;;;;10.58;100.00;98367.91;2066739;28;20201;-72
2022/05/30 03:15:46;;;;;;;30.38;27.15;;;;;;;10.55;100.00;98363.19;2066691;28;20205;-71
2022/05/30 03:16:49;;;;;;;29.83;26.65;;;;;;;10.56;100.00;98368.22;2066856;28;20630;-72
2022/05/30 03:17:51;;;;;;;33.22;26.83;;;;;;;10.59;100.00;98370.25;2066867;28;20699;-72
2022/05/30 03:18:54;;;;;;;35.33;28.17;;;;;;;10.51;100.00;98367.56;2066861;28;20193;-71
2022/05/30 03:19:55;;;;;;;31.20;27.05;;;;;;;10.55;100.00;98371.22;2058903;28;20225;-72
2022/05/30 03:20:59;;;;;;;31.15;27.77;;;;;;;10.53;100.00;98371.53;2066269;28;20197;-72
2022/05/30 03:22:00;;;;;;;38.33;28.25;;;;;;;10.50;100.00;98366.00;2059236;28;20220;-72
2022/05/30 03:23:07;;;;;;;33.28;26.45;;;;;;;10.53;100.00;98370.75;2059554;28;20703;-72
2022/05/30 03:24:29;;;;;;;31.17;27.13;;;;;;;10.51;100.00;98371.03;2063467;28;20284;-73
2022/05/30 03:25:30;;;;;;;33.80;25.77;;;;;;;10.53;100.00;98382.19;2066477;28;20205;-72
2022/05/30 03:26:34;;;;;;;30.30;25.88;;;;;;;10.50;100.00;98376.69;2059023;28;20681;-72
2022/05/30 03:27:36;;;;;;;33.85;27.42;;;;;;;10.53;100.00;98376.06;2058668;28;20578;-73
2022/05/30 03:28:38;;;;;;;35.63;26.50;;;;;;;10.50;100.00;98377.47;2058750;28;20659;-73
2022/05/30 03:29:41;;;;;;;32.08;27.45;;;;;;;10.47;100.00;98378.09;2066693;28;20671;-73
2022/05/30 03:30:44;;;;;;;31.73;26.10;;;;;;;10.43;100.00;98382.50;2066649;28;20228;-72
2022/05/30 03:31:45;;;;;;;31.27;26.92;;;;;;;10.43;100.00;98379.81;2066560;28;20224;-73
2022/05/30 03:32:49;;;;;;;31.73;26.80;;;;;;;10.46;100.00;98387.19;2066702;28;20201;-72
2022/05/30 03:33:50;;;;;;;34.75;25.60;;;;;;;10.43;100.00;98383.28;2058861;28;20197;-73
2022/05/30 03:34:54;;;;;;;29.50;26.33;;;;;;;10.44;100.00;98378.72;2066727;28;20272;-72
2022/05/30 03:35:56;;;;;;;32.95;26.88;;;;;;;10.47;100.00;98381.53;2066184;28;20204;-72
2022/05/30 03:37:30;;;;;;;30.85;27.65;;;;;;;10.47;100.00;98388.75;2066917;28;20201;-72
2022/05/30 03:38:46;;;;;;;33.53;26.98;;;;;;;10.50;100.00;98382.00;2066911;28;20204;-72
2022/05/30 03:40:09;;;;;;;28.80;25.73;;;;;;;10.51;100.00;98384.34;2067033;28;20573;-72
2022/05/30 03:41:40;;;;;;;29.65;26.48;;;;;;;10.50;100.00;98382.00;2066728;28;20213;-73
2022/05/30 03:42:48;;;;;;;33.08;27.13;;;;;;;10.55;100.00;98390.66;2066692;28;20279;-72
2022/05/30 03:44:00;;;;;;;30.17;26.00;;;;;;;10.51;100.00;98375.56;2059626;28;20679;-72
2022/05/30 03:45:02;;;;;;;29.27;26.25;;;;;;;10.51;100.00;98387.03;2066623;28;20619;-72
2022/05/30 03:46:03;;;;;;;30.20;27.00;;;;;;;10.50;100.00;98380.13;2066557;28;20248;-72
2022/05/30 03:47:05;;;;;;;33.42;26.75;;;;;;;10.52;100.00;98385.97;2066580;28;20221;-72
2022/05/30 03:48:10;;;;;;;28.88;25.98;;;;;;;10.51;100.00;98384.34;2058594;28;20201;-73
2022/05/30 03:49:12;;;;;;;35.10;27.42;;;;;;;10.48;100.00;98390.31;2059077;28;20197;-72
2022/05/30 03:50:19;;;;;;;30.58;26.80;;;;;;;10.58;100.00;98389.25;2058864;28;20260;-72
2022/05/30 03:51:21;;;;;;;33.55;26.73;;;;;;;10.62;100.00;98385.66;2058768;28;20746;-72
2022/05/30 03:52:22;;;;;;;29.15;26.05;;;;;;;10.61;100.00;98389.41;2058703;28;20186;-72
2022/05/30 03:53:24;;;;;;;31.93;26.93;;;;;;;10.71;100.00;98381.09;2058514;28;20763;-72
2022/05/30 03:54:26;;;;;;;29.40;26.17;;;;;;;10.70;100.00;98386.75;2058579;28;20223;-72
2022/05/30 03:55:32;;;;;;;37.58;26.48;;;;;;;10.67;100.00;98388.16;2066424;28;20245;-72
2022/05/30 03:56:33;;;;;;;29.67;26.50;;;;;;;10.71;100.00;98388.31;2059220;28;20200;-72
2022/05/30 03:57:38;;;;;;;28.17;25.27;;;;;;;10.70;100.00;98387.53;2066523;28;20705;-73
2022/05/30 03:58:40;;;;;;;29.83;25.90;;;;;;;10.69;100.00;98391.31;2058920;28;20201;-72
2022/05/30 03:59:40;;;;;;;29.70;26.50;;;;;;;10.66;100.00;98385.81;2058535;28;20700;-72
2022/05/30 04:00:44;;;;;;;29.30;26.33;;;;;;;10.65;100.00;98393.03;2058466;28;20614;-72
2022/05/30 04:01:48;;;;;;;28.92;26.20;;;;;;;10.61;100.00;98383.31;2066626;28;20447;-72
2022/05/30 04:02:53;;;;;;;32.95;26.33;;;;;;;10.67;100.00;98385.47;2066619;28;20189;-72
2022/05/30 04:03:59;;;;;;;31.30;26.98;;;;;;;10.71;100.00;98385.66;2066468;28;20209;-72
2022/05/30 04:05:00;;;;;;;29.52;25.80;;;;;;;10.75;100.00;98386.59;2066593;28;20193;-73
2022/05/30 04:06:02;;;;;;;27.87;24.97;;;;;;;10.67;100.00;98385.47;2065862;28;20240;-72
2022/05/30 04:07:03;;;;;;;29.33;26.10;;;;;;;10.76;100.00;98383.59;2066602;28;20208;-72
2022/05/30 04:08:09;;;;;;;28.15;25.25;;;;;;;10.86;100.00;98381.72;2066659;28;20189;-72
2022/05/30 04:09:31;;;;;;;29.90;26.80;;;;;;;10.83;100.00;98382.34;2066185;28;20212;-72
2022/05/30 04:10:59;;;;;;;30.40;27.15;;;;;;;10.80;100.00;98396.34;2066861;28;20212;-73
2022/05/30 04:12:24;;;;;;;30.10;26.63;;;;;;;10.79;100.00;98389.44;2066783;28;20263;-72
2022/05/30 04:13:49;;;;;;;32.00;26.85;;;;;;;10.81;100.00;98387.22;2066935;28;20279;-72
2022/05/30 04:15:10;;;;;;;30.90;27.73;;;;;;;10.74;100.00;98391.16;2066359;28;20687;-72
2022/05/30 04:16:15;;;;;;;36.17;27.90;;;;;;;10.84;100.00;98386.59;2066397;28;20203;-72
2022/05/30 04:17:16;;;;;;;32.95;27.65;;;;;;;10.87;100.00;98380.66;2066418;28;20193;-72
2022/05/30 04:18:22;;;;;;;30.20;26.67;;;;;;;10.92;100.00;98389.25;2066361;28;20227;-72
2022/05/30 04:19:24;;;;;;;29.70;26.60;;;;;;;11.01;100.00;98391.94;2066565;28;20685;-72
2022/05/30 04:20:26;;;;;;;30.65;27.20;;;;;;;10.94;100.00;98391.63;2067218;28;20185;-72
2022/05/30 04:21:26;;;;;;;32.20;28.52;;;;;;;10.99;100.00;98386.13;2065537;28;20627;-72
2022/05/30 04:22:28;;;;;;;34.17;27.80;;;;;;;11.10;100.00;98379.34;2066478;28;20185;-72
2022/05/30 04:24:01;;;;;;;35.25;27.85;;;;;;;11.14;100.00;98379.53;2066452;28;20208;-72
2022/05/30 04:25:04;;;;;;;30.73;27.50;;;;;;;11.19;100.00;98379.34;2065056;28;20205;-72
2022/05/30 04:26:07;;;;;;;34.33;27.08;;;;;;;11.18;100.00;98383.91;2066306;28;20592;-72
2022/05/30 04:27:12;;;;;;;30.42;27.27;;;;;;;11.23;100.00;98383.75;2066728;28;20284;-72
2022/05/30 04:28:14;;;;;;;32.60;29.10;;;;;;;11.15;100.00;98370.41;2066307;28;20585;-72
2022/05/30 04:29:18;;;;;;;37.40;29.17;;;;;;;11.21;100.00;98374.50;2058922;28;20236;-72
2022/05/30 04:30:44;;;;;;;32.35;28.95;;;;;;;11.15;100.00;98376.53;2066427;28;20721;-72
2022/05/30 04:31:45;;;;;;;35.42;29.45;;;;;;;11.18;100.00;98377.78;2066223;28;20640;-72
2022/05/30 04:32:48;;;;;;;32.35;27.85;;;;;;;11.24;100.00;98363.19;2066350;28;20561;-72
2022/05/30 04:33:50;;;;;;;33.17;28.17;;;;;;;11.22;100.00;98368.84;2066415;28;20199;-73
2022/05/30 04:34:54;;;;;;;31.90;28.52;;;;;;;11.24;100.00;98368.53;2058257;28;20198;-72
2022/05/30 04:35:57;;;;;;;32.83;27.38;;;;;;;11.30;100.00;98372.59;2065558;28;20216;-73
2022/05/30 04:37:00;;;;;;;31.52;28.38;;;;;;;11.39;100.00;98359.22;2066380;28;20181;-72
2022/05/30 04:38:03;;;;;;;29.23;26.08;;;;;;;11.41;100.00;98367.69;2058551;28;20205;-72
2022/05/30 04:39:25;;;;;;;31.27;27.88;;;;;;;11.53;100.00;98370.50;2061262;28;20207;-73
2022/05/30 04:40:59;;;;;;;34.08;27.85;;;;;;;11.56;100.00;98376.00;2054241;28;20202;-72
2022/05/30 04:42:30;;;;;;;31.02;27.02;;;;;;;11.68;100.00;98374.53;2066789;28;20201;-72
2022/05/30 04:44:02;;;;;;;32.05;27.23;;;;;;;11.63;100.00;98372.81;2066718;28;20284;-72
2022/05/30 04:45:24;;;;;;;29.30;26.13;;;;;;;11.64;100.00;98371.72;2066998;28;20264;-72
2022/05/30 04:46:38;;;;;;;30.38;26.08;;;;;;;11.69;100.00;98370.75;2066563;28;20196;-73
2022/05/30 04:47:40;;;;;;;29.42;25.60;;;;;;;11.77;100.00;98381.41;2066416;28;20197;-72
2022/05/30 04:48:42;;;;;;;30.85;27.42;;;;;;;11.80;100.00;98375.44;2066168;28;20224;-72
2022/05/30 04:49:44;;;;;;;31.33;26.10;;;;;;;11.82;100.00;98373.25;2058406;28;20257;-73
2022/05/30 04:50:46;;;;;;;29.90;26.58;;;;;;;11.85;100.00;98369.16;2058118;28;20205;-72
2022/05/30 04:51:50;;;;;;;28.40;25.10;;;;;;;11.87;100.00;98369.63;2065839;28;20228;-72
2022/05/30 04:52:54;;;;;;;36.97;25.00;;;;;;;11.86;100.00;98363.50;2058425;28;20252;-72
2022/05/30 04:54:14;;;;;;;28.90;25.77;;;;;;;11.95;100.00;98371.47;2066686;28;20305;-73
2022/05/30 04:55:35;;;;;;;31.23;25.92;;;;;;;11.84;100.00;98364.94;2066735;28;20180;-73
2022/05/30 04:56:37;;;;;;;32.72;26.65;;;;;;;11.88;100.00;98365.84;2066110;28;20668;-72
2022/05/30 04:57:43;;;;;;;28.00;25.05;;;;;;;11.87;100.00;98366.94;2058419;28;20205;-72
2022/05/30 04:59:05;;;;;;;29.35;25.20;;;;;;;11.89;100.00;98368.19;2069039;28;20291;-72
2022/05/30 05:00:10;;;;;;;28.25;24.10;;;;;;;11.86;100.00;98379.53;2067228;28;20232;-73
2022/05/30 05:01:11;;;;;;;32.08;25.80;;;;;;;11.79;100.00;98373.84;2058403;28;20557;-72
2022/05/30 05:02:16;;;;;;;28.00;25.13;;;;;;;11.76;100.00;98382.53;2058118;28;20201;-73
2022/05/30 05:03:18;;;;;;;27.30;24.42;;;;;;;11.64;100.00;98379.75;2058543;28;20692;-72
2022/05/30 05:04:18;;;;;;;28.50;25.65;;;;;;;11.57;100.00;98376.78;2057963;28;20193;-72
2022/05/30 05:05:20;;;;;;;28.37;25.43;;;;;;;11.56;100.00;98381.34;2066028;28;20204;-72
2022/05/30 05:06:23;;;;;;;31.55;24.90;;;;;;;11.57;100.00;98384.78;2065556;28;20221;-72
2022/05/30 05:07:25;;;;;;;28.15;25.35;;;;;;;11.50;100.00;98377.25;2065982;28;20209;-72